sensor_id;sensor_type;location;lat;lon;timestamp;pressure;altitude;pressure_sealevel;temperature;humidity
13732;BME280;6937;56.096;12.664;2024-02-26T00:01:39;100585.44;;;5.63;100.00
13732;BME280;6937;56.096;12.664;2024-02-26T00:04:04;100588.44;;;5.57;100.00
13732;BME280;6937;56.096;12.664;2024-02-26T00:06:30;100593.75;;;5.57;100.00
13732;BME280;6937;56.096;12.664;2024-02-26T00:08:56;100590.16;;;5.58;100.00
13732;BME280;6937;56.096;12.664;2024-02-26T00:11:22;100599.81;;;5.59;100.00
13732;BME280;6937;56.096;12.664;2024-02-26T00:13:48;100594.78;;;5.54;100.00
13732;BME280;6937;56.096;12.664;2024-02-26T00:16:13;100598.19;;;5.56;100.00
13732;BME280;6937;56.096;12.664;2024-02-26T00:18:39;100599.22;;;5.54;100.00
13732;BME280;6937;56.096;12.664;2024-02-26T00:21:04;100600.94;;;5.55;100.00
13732;BME280;6937;56.096;12.664;2024-02-26T00:23:30;100595.53;;;5.56;100.00
13732;BME280;6937;56.096;12.664;2024-02-26T00:25:55;100602.63;;;5.56;100.00
13732;BME280;6937;56.096;12.664;2024-02-26T00:28:21;100593.56;;;5.60;100.00
13732;BME280;6937;56.096;12.664;2024-02-26T00:30:46;100594.34;;;5.62;100.00
13732;BME280;6937;56.096;12.664;2024-02-26T00:33:12;100595.03;;;5.65;100.00
13732;BME280;6937;56.096;12.664;2024-02-26T00:35:37;100602.72;;;5.70;100.00
13732;BME280;6937;56.096;12.664;2024-02-26T00:38:03;100590.75;;;5.63;100.00
13732;BME280;6937;56.096;12.664;2024-02-26T00:40:29;100597.88;;;5.62;100.00
13732;BME280;6937;56.096;12.664;2024-02-26T00:42:54;100606.50;;;5.66;100.00
13732;BME280;6937;56.096;12.664;2024-02-26T00:45:20;100608.19;;;5.67;100.00
13732;BME280;6937;56.096;12.664;2024-02-26T00:47:45;100602.81;;;5.68;100.00
13732;BME280;6937;56.096;12.664;2024-02-26T00:50:12;100604.44;;;5.71;100.00
13732;BME280;6937;56.096;12.664;2024-02-26T00:52:37;100615.06;;;5.71;100.00
13732;BME280;6937;56.096;12.664;2024-02-26T00:55:03;100603.84;;;5.66;100.00
13732;BME280;6937;56.096;12.664;2024-02-26T00:57:29;100614.72;;;5.61;100.00
13732;BME280;6937;56.096;12.664;2024-02-26T00:59:54;100606.13;;;5.56;100.00
13732;BME280;6937;56.096;12.664;2024-02-26T01:02:21;100612.38;;;5.55;100.00
13732;BME280;6937;56.096;12.664;2024-02-26T01:04:47;100605.63;;;5.50;100.00
13732;BME280;6937;56.096;12.664;2024-02-26T01:07:13;100616.22;;;5.50;100.00
13732;BME280;6937;56.096;12.664;2024-02-26T01:09:38;100616.22;;;5.50;100.00
13732;BME280;6937;56.096;12.664;2024-02-26T01:12:03;100599.63;;;5.46;100.00
13732;BME280;6937;56.096;12.664;2024-02-26T01:14:29;100605.88;;;5.45;100.00
13732;BME280;6937;56.096;12.664;2024-02-26T01:16:54;100610.31;;;5.45;100.00
13732;BME280;6937;56.096;12.664;2024-02-26T01:19:20;100609.31;;;5.47;100.00
13732;BME280;6937;56.096;12.664;2024-02-26T01:21:46;100615.38;;;5.49;100.00
13732;BME280;6937;56.096;12.664;2024-02-26T01:24:12;100612.78;;;5.48;100.00
13732;BME280;6937;56.096;12.664;2024-02-26T01:26:37;100607.47;;;5.48;100.00
13732;BME280;6937;56.096;12.664;2024-02-26T01:29:02;100612.78;;;5.48;100.00
13732;BME280;6937;56.096;12.664;2024-02-26T01:31:28;100615.38;;;5.49;100.00
13732;BME280;6937;56.096;12.664;2024-02-26T01:33:53;100615.28;;;5.51;100.00
13732;BME280;6937;56.096;12.664;2024-02-26T01:36:19;100605.44;;;5.53;100.00
13732;BME280;6937;56.096;12.664;2024-02-26T01:38:44;100608.03;;;5.54;100.00
13732;BME280;6937;56.096;12.664;2024-02-26T01:41:09;100599.81;;;5.59;100.00
13732;BME280;6937;56.096;12.664;2024-02-26T01:43:35;100609.16;;;5.66;100.00
13732;BME280;6937;56.096;12.664;2024-02-26T01:46:00;100611.81;;;5.66;100.00
13732;BME280;6937;56.096;12.664;2024-02-26T01:48:26;100612.50;;;5.69;100.00
13732;BME280;6937;56.096;12.664;2024-02-26T01:50:51;100611.47;;;5.72;100.00
13732;BME280;6937;56.096;12.664;2024-02-26T01:53:18;100610.53;;;5.73;100.00
13732;BME280;6937;56.096;12.664;2024-02-26T01:55:44;100616.59;;;5.75;100.00
13732;BME280;6937;56.096;12.664;2024-02-26T01:58:10;100614.03;;;5.73;100.00
13732;BME280;6937;56.096;12.664;2024-02-26T02:00:36;100609.69;;;5.72;100.00
13732;BME280;6937;56.096;12.664;2024-02-26T02:03:03;100603.44;;;5.73;100.00
13732;BME280;6937;56.096;12.664;2024-02-26T02:05:29;100608.88;;;5.70;100.00
13732;BME280;6937;56.096;12.664;2024-02-26T02:07:55;100609.91;;;5.68;100.00
13732;BME280;6937;56.096;12.664;2024-02-26T02:10:21;100616.09;;;5.68;100.00
13732;BME280;6937;56.096;12.664;2024-02-26T02:12:51;100599.81;;;5.59;100.00
13732;BME280;6937;56.096;12.664;2024-02-26T02:15:17;100607.47;;;5.48;100.00
13732;BME280;6937;56.096;12.664;2024-02-26T02:17:42;100594.66;;;5.40;100.00
13732;BME280;6937;56.096;12.664;2024-02-26T02:20:09;100604.41;;;5.40;100.00
13732;BME280;6937;56.096;12.664;2024-02-26T02:22:35;100610.72;;;5.37;100.00
13732;BME280;6937;56.096;12.664;2024-02-26T02:25:00;100616.19;;;5.34;100.00
13732;BME280;6937;56.096;12.664;2024-02-26T02:27:27;100608.31;;;5.32;100.00
13732;BME280;6937;56.096;12.664;2024-02-26T02:29:53;100617.03;;;5.34;100.00
13732;BME280;6937;56.096;12.664;2024-02-26T02:32:19;100612.84;;;5.30;100.00
13732;BME280;6937;56.096;12.664;2024-02-26T02:34:46;100619.00;;;5.31;100.00
13732;BME280;6937;56.096;12.664;2024-02-26T02:37:11;100625.84;;;5.35;100.00
13732;BME280;6937;56.096;12.664;2024-02-26T02:39:37;100624.28;;;5.31;100.00
13732;BME280;6937;56.096;12.664;2024-02-26T02:42:02;100627.00;;;5.29;100.00
13732;BME280;6937;56.096;12.664;2024-02-26T02:44:28;100621.03;;;5.26;100.00
13732;BME280;6937;56.096;12.664;2024-02-26T02:46:53;100618.53;;;5.23;100.00
13732;BME280;6937;56.096;12.664;2024-02-26T02:49:18;100625.78;;;5.19;100.00
13732;BME280;6937;56.096;12.664;2024-02-26T02:51:44;100629.47;;;5.17;100.00
13732;BME280;6937;56.096;12.664;2024-02-26T02:54:09;100633.22;;;5.13;100.00
13732;BME280;6937;56.096;12.664;2024-02-26T02:56:35;100641.06;;;5.14;100.00
13732;BME280;6937;56.096;12.664;2024-02-26T02:59:01;100635.75;;;5.14;100.00
13732;BME280;6937;56.096;12.664;2024-02-26T03:01:27;100632.34;;;5.12;100.00
13732;BME280;6937;56.096;12.664;2024-02-26T03:03:52;100629.69;;;5.12;100.00
13732;BME280;6937;56.096;12.664;2024-02-26T03:06:17;100641.63;;;5.21;100.00
13732;BME280;6937;56.096;12.664;2024-02-26T03:08:43;100637.31;;;5.18;100.00
13732;BME280;6937;56.096;12.664;2024-02-26T03:11:13;100637.25;;;5.20;100.00
13732;BME280;6937;56.096;12.664;2024-02-26T03:13:39;100647.00;;;5.19;100.00
13732;BME280;6937;56.096;12.664;2024-02-26T03:16:05;100650.66;;;5.17;100.00
13732;BME280;6937;56.096;12.664;2024-02-26T03:18:31;100649.63;;;5.19;100.00
13732;BME280;6937;56.096;12.664;2024-02-26T03:20:56;100650.41;;;5.21;100.00
13732;BME280;6937;56.096;12.664;2024-02-26T03:23:21;100640.94;;;5.17;100.00
13732;BME280;6937;56.096;12.664;2024-02-26T03:25:47;100648.88;;;5.17;100.00
13732;BME280;6937;56.096;12.664;2024-02-26T03:28:13;100651.59;;;5.16;100.00
13732;BME280;6937;56.096;12.664;2024-02-26T03:30:38;100653.22;;;5.18;100.00
13732;BME280;6937;56.096;12.664;2024-02-26T03:33:04;100646.38;;;5.14;100.00
13732;BME280;6937;56.096;12.664;2024-02-26T03:35:29;100652.22;;;5.04;100.00
13732;BME280;6937;56.096;12.664;2024-02-26T03:37:55;100641.09;;;4.97;100.00
13732;BME280;6937;56.096;12.664;2024-02-26T03:40:20;100649.25;;;4.93;100.00
13732;BME280;6937;56.096;12.664;2024-02-26T03:42:45;100646.94;;;4.86;100.00
13732;BME280;6937;56.096;12.664;2024-02-26T03:45:11;100645.53;;;4.79;100.00
13732;BME280;6937;56.096;12.664;2024-02-26T03:47:37;100644.19;;;4.71;100.00
13732;BME280;6937;56.096;12.664;2024-02-26T03:50:05;100647.44;;;4.59;100.00
13732;BME280;6937;56.096;12.664;2024-02-26T03:52:32;100660.63;;;4.60;100.00
13732;BME280;6937;56.096;12.664;2024-02-26T03:54:57;100671.44;;;4.56;100.00
13732;BME280;6937;56.096;12.664;2024-02-26T03:57:22;100666.56;;;4.47;100.00
13732;BME280;6937;56.096;12.664;2024-02-26T03:59:48;100677.03;;;4.50;100.00
13732;BME280;6937;56.096;12.664;2024-02-26T04:02:13;100670.88;;;4.49;100.00
13732;BME280;6937;56.096;12.664;2024-02-26T04:04:38;100678.88;;;4.48;100.00
13732;BME280;6937;56.096;12.664;2024-02-26T04:07:04;100685.97;;;4.47;100.00
13732;BME280;6937;56.096;12.664;2024-02-26T04:09:31;100685.91;;;4.49;100.00
13732;BME280;6937;56.096;12.664;2024-02-26T04:11:56;100691.47;;;4.43;100.00
13732;BME280;6937;56.096;12.664;2024-02-26T04:14:22;100686.16;;;4.43;100.00
13732;BME280;6937;56.096;12.664;2024-02-26T04:16:47;100689.56;;;4.46;100.00
13732;BME280;6937;56.096;12.664;2024-02-26T04:19:16;100687.69;;;4.48;100.00
13732;BME280;6937;56.096;12.664;2024-02-26T04:21:42;100690.31;;;4.48;100.00
13732;BME280;6937;56.096;12.664;2024-02-26T04:24:08;100690.50;;;4.26;100.00
13732;BME280;6937;56.096;12.664;2024-02-26T04:26:33;100694.13;;;4.24;100.00
13732;BME280;6937;56.096;12.664;2024-02-26T04:28:58;100695.28;;;4.18;100.00
13732;BME280;6937;56.096;12.664;2024-02-26T04:31:24;100692.84;;;4.14;100.00
13732;BME280;6937;56.096;12.664;2024-02-26T04:33:49;100698.59;;;4.05;100.00
13732;BME280;6937;56.096;12.664;2024-02-26T04:36:15;100702.38;;;3.99;100.00
13732;BME280;6937;56.096;12.664;2024-02-26T04:38:42;100698.16;;;3.95;100.00
13732;BME280;6937;56.096;12.664;2024-02-26T04:41:07;100702.34;;;3.80;100.00
13732;BME280;6937;56.096;12.664;2024-02-26T04:43:32;100704.09;;;3.81;100.00
13732;BME280;6937;56.096;12.664;2024-02-26T04:45:58;100714.31;;;3.89;100.00
13732;BME280;6937;56.096;12.664;2024-02-26T04:48:23;100709.78;;;3.91;100.00
13732;BME280;6937;56.096;12.664;2024-02-26T04:50:49;100702.91;;;3.87;100.00
13732;BME280;6937;56.096;12.664;2024-02-26T04:53:14;100715.22;;;3.88;100.00
13732;BME280;6937;56.096;12.664;2024-02-26T04:55:39;100716.34;;;3.82;100.00
13732;BME280;6937;56.096;12.664;2024-02-26T04:58:05;100711.63;;;3.70;100.00
13732;BME280;6937;56.096;12.664;2024-02-26T05:00:30;100711.47;;;3.55;100.00
13732;BME280;6937;56.096;12.664;2024-02-26T05:02:55;100710.41;;;3.38;100.00
13732;BME280;6937;56.096;12.664;2024-02-26T05:05:21;100707.22;;;3.30;100.00
13732;BME280;6937;56.096;12.664;2024-02-26T05:07:47;100711.47;;;3.34;100.00
13732;BME280;6937;56.096;12.664;2024-02-26T05:10:12;100722.88;;;3.35;100.00
13732;BME280;6937;56.096;12.664;2024-02-26T05:12:38;100720.34;;;3.33;100.00
13732;BME280;6937;56.096;12.664;2024-02-26T05:15:04;100720.56;;;3.27;100.00
13732;BME280;6937;56.096;12.664;2024-02-26T05:17:29;100722.81;;;3.16;100.00
13732;BME280;6937;56.096;12.664;2024-02-26T05:19:55;100732.19;;;3.23;100.00
13732;BME280;6937;56.096;12.664;2024-02-26T05:22:20;100725.84;;;3.27;100.00
13732;BME280;6937;56.096;12.664;2024-02-26T05:24:46;100735.22;;;3.34;100.00
13732;BME280;6937;56.096;12.664;2024-02-26T05:27:11;100742.44;;;3.31;100.00
13732;BME280;6937;56.096;12.664;2024-02-26T05:29:37;100739.97;;;3.26;100.00
13732;BME280;6937;56.096;12.664;2024-02-26T05:32:03;100747.13;;;3.24;100.00
13732;BME280;6937;56.096;12.664;2024-02-26T05:34:29;100743.81;;;3.19;100.00
13732;BME280;6937;56.096;12.664;2024-02-26T05:36:58;100750.63;;;3.25;100.00
13732;BME280;6937;56.096;12.664;2024-02-26T05:39:24;100755.44;;;3.35;100.00
13732;BME280;6937;56.096;12.664;2024-02-26T05:41:49;100756.13;;;3.40;100.00
13732;BME280;6937;56.096;12.664;2024-02-26T05:44:14;100757.03;;;3.39;100.00
13732;BME280;6937;56.096;12.664;2024-02-26T05:46:41;100760.34;;;3.45;100.00
13732;BME280;6937;56.096;12.664;2024-02-26T05:49:07;100771.09;;;3.40;100.00
13732;BME280;6937;56.096;12.664;2024-02-26T05:51:33;100773.59;;;3.43;100.00
13732;BME280;6937;56.096;12.664;2024-02-26T05:53:58;100775.47;;;3.41;100.00
13732;BME280;6937;56.096;12.664;2024-02-26T05:56:23;100781.53;;;3.43;100.00
13732;BME280;6937;56.096;12.664;2024-02-26T05:58:49;100781.72;;;3.38;100.00
13732;BME280;6937;56.096;12.664;2024-02-26T06:01:15;100785.41;;;3.34;100.00
13732;BME280;6937;56.096;12.664;2024-02-26T06:03:41;100795.34;;;3.29;100.00
13732;BME280;6937;56.096;12.664;2024-02-26T06:06:07;100796.56;;;3.21;100.00
13732;BME280;6937;56.096;12.664;2024-02-26T06:08:32;100794.78;;;3.21;100.00
13732;BME280;6937;56.096;12.664;2024-02-26T06:10:57;100799.47;;;3.15;100.00
13732;BME280;6937;56.096;12.664;2024-02-26T06:13:23;100794.56;;;3.06;100.00
13732;BME280;6937;56.096;12.664;2024-02-26T06:15:48;100803.09;;;3.12;100.00
13732;BME280;6937;56.096;12.664;2024-02-26T06:18:14;100810.69;;;3.20;100.00
13732;BME280;6937;56.096;12.664;2024-02-26T06:20:39;100813.00;;;3.27;100.00
13732;BME280;6937;56.096;12.664;2024-02-26T06:23:04;100809.47;;;3.28;100.00
13732;BME280;6937;56.096;12.664;2024-02-26T06:25:30;100822.66;;;3.28;100.00
13732;BME280;6937;56.096;12.664;2024-02-26T06:27:55;100820.06;;;3.27;100.00
13732;BME280;6937;56.096;12.664;2024-02-26T06:30:21;100819.16;;;3.28;100.00
13732;BME280;6937;56.096;12.664;2024-02-26T06:32:46;100823.84;;;3.21;100.00
13732;BME280;6937;56.096;12.664;2024-02-26T06:35:11;100832.00;;;3.15;100.00
13732;BME280;6937;56.096;12.664;2024-02-26T06:37:37;100839.81;;;3.18;100.00
13732;BME280;6937;56.096;12.664;2024-02-26T06:40:03;100849.44;;;3.19;100.00
13732;BME280;6937;56.096;12.664;2024-02-26T06:42:34;100864.44;;;3.40;100.00
13732;BME280;6937;56.096;12.664;2024-02-26T06:45:00;100865.97;;;3.66;100.00
13732;BME280;6937;56.096;12.664;2024-02-26T06:47:26;100865.25;;;3.83;100.00
13732;BME280;6937;56.096;12.664;2024-02-26T06:49:51;100869.59;;;3.84;100.00
13732;BME280;6937;56.096;12.664;2024-02-26T06:52:16;100876.09;;;3.77;100.00
13732;BME280;6937;56.096;12.664;2024-02-26T06:54:42;100881.41;;;3.75;100.00
13732;BME280;6937;56.096;12.664;2024-02-26T06:57:07;100882.69;;;3.87;100.00
13732;BME280;6937;56.096;12.664;2024-02-26T06:59:33;100886.97;;;4.10;100.00
13732;BME280;6937;56.096;12.664;2024-02-26T07:01:58;100895.97;;;4.06;100.00
13732;BME280;6937;56.096;12.664;2024-02-26T07:04:23;100897.13;;;4.00;100.00
13732;BME280;6937;56.096;12.664;2024-02-26T07:06:49;100899.56;;;4.05;100.00
13732;BME280;6937;56.096;12.664;2024-02-26T07:09:14;100900.22;;;4.10;100.00
13732;BME280;6937;56.096;12.664;2024-02-26T07:11:40;100906.03;;;4.18;100.00
13732;BME280;6937;56.096;12.664;2024-02-26T07:14:08;100912.03;;;4.21;100.00
13732;BME280;6937;56.096;12.664;2024-02-26T07:16:34;100915.41;;;4.25;100.00
13732;BME280;6937;56.096;12.664;2024-02-26T07:18:59;100916.28;;;4.25;100.00
13732;BME280;6937;56.096;12.664;2024-02-26T07:21:24;100925.75;;;4.31;100.00
13732;BME280;6937;56.096;12.664;2024-02-26T07:23:50;100923.69;;;4.37;100.00
13732;BME280;6937;56.096;12.664;2024-02-26T07:26:15;100930.41;;;4.45;100.00
13732;BME280;6937;56.096;12.664;2024-02-26T07:28:42;100933.63;;;4.51;100.00
13732;BME280;6937;56.096;12.664;2024-02-26T07:31:07;100934.00;;;4.62;100.00
13732;BME280;6937;56.096;12.664;2024-02-26T07:33:33;100945.97;;;4.71;100.00
13732;BME280;6937;56.096;12.664;2024-02-26T07:35:58;100936.88;;;4.76;100.00
13732;BME280;6937;56.096;12.664;2024-02-26T07:38:24;100948.94;;;4.83;100.00
13732;BME280;6937;56.096;12.664;2024-02-26T07:40:49;100943.41;;;4.88;100.00
13732;BME280;6937;56.096;12.664;2024-02-26T07:43:15;100945.78;;;4.94;100.00
13732;BME280;6937;56.096;12.664;2024-02-26T07:45:40;100953.25;;;5.05;100.00
13732;BME280;6937;56.096;12.664;2024-02-26T07:48:06;100958.19;;;5.12;100.00
13732;BME280;6937;56.096;12.664;2024-02-26T07:50:32;100968.56;;;5.17;100.00
13732;BME280;6937;56.096;12.664;2024-02-26T07:52:57;100970.16;;;5.21;100.00
13732;BME280;6937;56.096;12.664;2024-02-26T07:55:23;100975.13;;;5.27;100.00
13732;BME280;6937;56.096;12.664;2024-02-26T07:57:49;100982.03;;;5.31;100.00
13732;BME280;6937;56.096;12.664;2024-02-26T08:00:14;100973.72;;;5.39;100.00
13732;BME280;6937;56.096;12.664;2024-02-26T08:02:42;100984.72;;;5.48;100.00
13732;BME280;6937;56.096;12.664;2024-02-26T08:05:08;100982.34;;;5.61;100.00
13732;BME280;6937;56.096;12.664;2024-02-26T08:07:34;100980.03;;;5.72;100.00
13732;BME280;6937;56.096;12.664;2024-02-26T08:09:59;100986.69;;;5.80;100.00
13732;BME280;6937;56.096;12.664;2024-02-26T08:12:24;100980.38;;;5.83;100.00
13732;BME280;6937;56.096;12.664;2024-02-26T08:14:50;100978.84;;;5.77;100.00
13732;BME280;6937;56.096;12.664;2024-02-26T08:17:15;100984.41;;;5.73;100.00
13732;BME280;6937;56.096;12.664;2024-02-26T08:19:40;100988.03;;;5.70;100.00
13732;BME280;6937;56.096;12.664;2024-02-26T08:22:06;100995.00;;;5.73;100.00
13732;BME280;6937;56.096;12.664;2024-02-26T08:24:31;100996.66;;;5.75;100.00
13732;BME280;6937;56.096;12.664;2024-02-26T08:26:56;100986.84;;;5.59;100.00
13732;BME280;6937;56.096;12.664;2024-02-26T08:29:22;100993.97;;;5.58;100.00
13732;BME280;6937;56.096;12.664;2024-02-26T08:31:47;100999.38;;;5.55;100.00
13732;BME280;6937;56.096;12.664;2024-02-26T08:34:14;100996.47;;;5.61;100.00
13732;BME280;6937;56.096;12.664;2024-02-26T08:36:39;101000.31;;;5.73;100.00
13732;BME280;6937;56.096;12.664;2024-02-26T08:39:04;100997.19;;;5.82;100.00
13732;BME280;6937;56.096;12.664;2024-02-26T08:41:31;100994.38;;;5.85;100.00
13732;BME280;6937;56.096;12.664;2024-02-26T08:43:56;101008.13;;;5.76;100.00
13732;BME280;6937;56.096;12.664;2024-02-26T08:46:23;101014.50;;;5.72;100.00
13732;BME280;6937;56.096;12.664;2024-02-26T08:48:48;101007.47;;;5.71;100.00
13732;BME280;6937;56.096;12.664;2024-02-26T08:51:14;101016.34;;;5.70;100.00
13732;BME280;6937;56.096;12.664;2024-02-26T08:53:40;101017.91;;;5.74;100.00
13732;BME280;6937;56.096;12.664;2024-02-26T08:56:05;101009.41;;;5.86;100.00
13732;BME280;6937;56.096;12.664;2024-02-26T08:58:31;101027.00;;;6.06;100.00
13732;BME280;6937;56.096;12.664;2024-02-26T09:00:57;101030.75;;;6.19;100.00
13732;BME280;6937;56.096;12.664;2024-02-26T09:03:22;101034.84;;;6.26;100.00
13732;BME280;6937;56.096;12.664;2024-02-26T09:05:48;101032.19;;;6.26;100.00
13732;BME280;6937;56.096;12.664;2024-02-26T09:08:14;101026.50;;;6.34;100.00
13732;BME280;6937;56.096;12.664;2024-02-26T09:10:40;101026.63;;;6.30;100.00
13732;BME280;6937;56.096;12.664;2024-02-26T09:13:05;101026.72;;;6.29;100.00
13732;BME280;6937;56.096;12.664;2024-02-26T09:15:31;101029.06;;;6.35;100.00
13732;BME280;6937;56.096;12.664;2024-02-26T09:17:57;101030.56;;;6.41;100.00
13732;BME280;6937;56.096;12.664;2024-02-26T09:20:22;101039.13;;;6.46;100.00
13732;BME280;6937;56.096;12.664;2024-02-26T09:22:49;101049.03;;;6.42;100.00
13732;BME280;6937;56.096;12.664;2024-02-26T09:25:16;101047.47;;;6.38;100.00
13732;BME280;6937;56.096;12.664;2024-02-26T09:27:42;101043.34;;;6.32;100.00
13732;BME280;6937;56.096;12.664;2024-02-26T09:30:12;101043.41;;;6.31;100.00
13732;BME280;6937;56.096;12.664;2024-02-26T09:32:38;101045.59;;;6.23;100.00
13732;BME280;6937;56.096;12.664;2024-02-26T09:35:04;101042.06;;;6.22;100.00
13732;BME280;6937;56.096;12.664;2024-02-26T09:37:30;101039.34;;;6.24;100.00
13732;BME280;6937;56.096;12.664;2024-02-26T09:39:55;101053.25;;;6.29;100.00
13732;BME280;6937;56.096;12.664;2024-02-26T09:42:25;101060.47;;;6.44;100.00
13732;BME280;6937;56.096;12.664;2024-02-26T09:44:53;101053.50;;;6.59;100.00
13732;BME280;6937;56.096;12.664;2024-02-26T09:47:19;101062.94;;;6.64;100.00
13732;BME280;6937;56.096;12.664;2024-02-26T09:49:46;101067.56;;;6.78;100.00
13732;BME280;6937;56.096;12.664;2024-02-26T09:52:14;101067.88;;;6.89;100.00
13732;BME280;6937;56.096;12.664;2024-02-26T09:54:41;101059.91;;;6.89;100.00
13732;BME280;6937;56.096;12.664;2024-02-26T09:57:09;101056.97;;;6.94;100.00
13732;BME280;6937;56.096;12.664;2024-02-26T09:59:41;101063.44;;;7.05;100.00
13732;BME280;6937;56.096;12.664;2024-02-26T10:02:14;101072.50;;;7.18;100.00
13732;BME280;6937;56.096;12.664;2024-02-26T10:04:40;101063.59;;;7.19;100.00
13732;BME280;6937;56.096;12.664;2024-02-26T10:07:10;101065.41;;;7.35;100.00
13732;BME280;6937;56.096;12.664;2024-02-26T10:09:36;101067.03;;;7.37;100.00
13732;BME280;6937;56.096;12.664;2024-02-26T10:12:02;101064.69;;;7.31;100.00
13732;BME280;6937;56.096;12.664;2024-02-26T10:14:27;101076.38;;;7.28;100.00
13732;BME280;6937;56.096;12.664;2024-02-26T10:16:53;101075.44;;;7.29;100.00
13732;BME280;6937;56.096;12.664;2024-02-26T10:19:26;101067.81;;;7.39;100.00
13732;BME280;6937;56.096;12.664;2024-02-26T10:21:58;101080.38;;;7.53;100.00
13732;BME280;6937;56.096;12.664;2024-02-26T10:24:25;101073.94;;;7.57;100.00
13732;BME280;6937;56.096;12.664;2024-02-26T10:26:51;101083.22;;;7.81;100.00
13732;BME280;6937;56.096;12.664;2024-02-26T10:29:18;101085.25;;;7.92;100.00
13732;BME280;6937;56.096;12.664;2024-02-26T10:31:44;101087.50;;;7.84;100.00
13732;BME280;6937;56.096;12.664;2024-02-26T10:34:10;101090.75;;;7.73;100.00
13732;BME280;6937;56.096;12.664;2024-02-26T10:36:36;101093.69;;;7.68;100.00
13732;BME280;6937;56.096;12.664;2024-02-26T10:39:03;101085.72;;;7.68;100.00
13732;BME280;6937;56.096;12.664;2024-02-26T10:41:30;101092.38;;;7.60;100.00
13732;BME280;6937;56.096;12.664;2024-02-26T10:43:55;101102.34;;;7.56;100.00
13732;BME280;6937;56.096;12.664;2024-02-26T10:46:20;101104.31;;;7.53;100.00
13732;BME280;6937;56.096;12.664;2024-02-26T10:48:53;101098.81;;;7.56;100.00
13732;BME280;6937;56.096;12.664;2024-02-26T10:51:29;101098.56;;;7.60;100.00
13732;BME280;6937;56.096;12.664;2024-02-26T10:53:59;101105.69;;;7.60;100.00
13732;BME280;6937;56.096;12.664;2024-02-26T10:56:28;101113.00;;;7.72;100.00
13732;BME280;6937;56.096;12.664;2024-02-26T10:58:57;101102.94;;;7.77;100.00
13732;BME280;6937;56.096;12.664;2024-02-26T11:01:24;101108.25;;;7.77;100.00
13732;BME280;6937;56.096;12.664;2024-02-26T11:03:51;101112.31;;;7.68;100.00
13732;BME280;6937;56.096;12.664;2024-02-26T11:06:18;101105.78;;;7.74;100.00
13732;BME280;6937;56.096;12.664;2024-02-26T11:08:48;101108.09;;;7.80;100.00
13732;BME280;6937;56.096;12.664;2024-02-26T11:11:16;101103.72;;;7.79;100.00
13732;BME280;6937;56.096;12.664;2024-02-26T11:13:44;101107.34;;;7.78;100.00
13732;BME280;6937;56.096;12.664;2024-02-26T11:16:13;101118.00;;;7.94;100.00
13732;BME280;6937;56.096;12.664;2024-02-26T11:18:40;101114.03;;;8.16;100.00
13732;BME280;6937;56.096;12.664;2024-02-26T11:21:07;101109.72;;;8.14;100.00
13732;BME280;6937;56.096;12.664;2024-02-26T11:23:33;101104.06;;;7.89;100.00
13732;BME280;6937;56.096;12.664;2024-02-26T11:26:02;101102.78;;;7.80;100.00
13732;BME280;6937;56.096;12.664;2024-02-26T11:28:29;101104.06;;;7.89;100.00
13732;BME280;6937;56.096;12.664;2024-02-26T11:30:57;101116.50;;;7.88;100.00
13732;BME280;6937;56.096;12.664;2024-02-26T11:33:24;101116.25;;;7.93;100.00
13732;BME280;6937;56.096;12.664;2024-02-26T11:35:50;101121.16;;;8.00;100.00
13732;BME280;6937;56.096;12.664;2024-02-26T11:38:24;101120.81;;;8.06;100.00
13732;BME280;6937;56.096;12.664;2024-02-26T11:40:51;101123.47;;;8.06;100.00
13732;BME280;6937;56.096;12.664;2024-02-26T11:43:52;101127.09;;;8.05;100.00
13732;BME280;6937;56.096;12.664;2024-02-26T11:46:27;101123.75;;;8.02;100.00
13732;BME280;6937;56.096;12.664;2024-02-26T11:51:54;101129.06;;;7.86;100.00
13732;BME280;6937;56.096;12.664;2024-02-26T11:57:04;101143.75;;;7.93;100.00
13732;BME280;6937;56.096;12.664;2024-02-26T11:59:39;101139.59;;;7.88;100.00
13732;BME280;6937;56.096;12.664;2024-02-26T12:02:07;101135.75;;;7.77;100.00
13732;BME280;6937;56.096;12.664;2024-02-26T12:04:32;101144.81;;;7.73;100.00
13732;BME280;6937;56.096;12.664;2024-02-26T12:07:02;101142.25;;;7.72;100.00
13732;BME280;6937;56.096;12.664;2024-02-26T12:09:35;101145.69;;;7.74;100.00
13732;BME280;6937;56.096;12.664;2024-02-26T12:12:02;101152.50;;;7.80;100.00
13732;BME280;6937;56.096;12.664;2024-02-26T12:14:28;101157.53;;;7.84;100.00
13732;BME280;6937;56.096;12.664;2024-02-26T12:16:55;101152.22;;;7.84;100.00
13732;BME280;6937;56.096;12.664;2024-02-26T12:19:21;101157.47;;;7.86;100.00
13732;BME280;6937;56.096;12.664;2024-02-26T12:21:51;101159.78;;;7.92;100.00
13732;BME280;6937;56.096;12.664;2024-02-26T12:24:18;101154.31;;;7.95;100.00
13732;BME280;6937;56.096;12.664;2024-02-26T12:26:43;101154.81;;;8.01;100.00
13732;BME280;6937;56.096;12.664;2024-02-26T12:29:09;101157.38;;;8.03;100.00
13732;BME280;6937;56.096;12.664;2024-02-26T12:31:36;101149.50;;;8.01;100.00
13732;BME280;6937;56.096;12.664;2024-02-26T12:34:03;101150.09;;;8.06;100.00
13732;BME280;6937;56.096;12.664;2024-02-26T12:36:29;101156.81;;;8.13;100.00
13732;BME280;6937;56.096;12.664;2024-02-26T12:38:54;101161.84;;;8.18;100.00
13732;BME280;6937;56.096;12.664;2024-02-26T12:41:20;101161.41;;;8.25;100.00
13732;BME280;6937;56.096;12.664;2024-02-26T12:43:46;101167.53;;;8.27;100.00
13732;BME280;6937;56.096;12.664;2024-02-26T12:46:12;101168.31;;;8.30;100.00
13732;BME280;6937;56.096;12.664;2024-02-26T12:48:38;101174.59;;;8.29;100.00
13732;BME280;6937;56.096;12.664;2024-02-26T12:51:05;101180.44;;;8.35;100.00